sensor_id;sensor_type;location;lat;lon;timestamp;P1;durP1;ratioP1;P2;durP2;ratioP2
9117;SDS011;4594;50.994;7.126;2023-04-25T00:01:17;8.50;;;5.23;;
9117;SDS011;4594;50.994;7.126;2023-04-25T00:03:43;11.00;;;5.13;;
9117;SDS011;4594;50.994;7.126;2023-04-25T00:06:10;9.00;;;5.13;;
9117;SDS011;4594;50.994;7.126;2023-04-25T00:08:37;6.37;;;4.47;;
9117;SDS011;4594;50.994;7.126;2023-04-25T00:11:02;7.47;;;4.93;;
9117;SDS011;4594;50.994;7.126;2023-04-25T00:13:28;8.63;;;5.17;;
9117;SDS011;4594;50.994;7.126;2023-04-25T00:15:54;5.10;;;4.53;;
9117;SDS011;4594;50.994;7.126;2023-04-25T00:18:21;9.33;;;5.77;;
9117;SDS011;4594;50.994;7.126;2023-04-25T00:20:47;9.47;;;5.37;;
9117;SDS011;4594;50.994;7.126;2023-04-25T00:23:14;6.43;;;4.90;;
9117;SDS011;4594;50.994;7.126;2023-04-25T00:25:43;6.00;;;5.13;;
9117;SDS011;4594;50.994;7.126;2023-04-25T00:28:11;6.93;;;5.13;;
9117;SDS011;4594;50.994;7.126;2023-04-25T00:30:37;7.37;;;5.37;;
9117;SDS011;4594;50.994;7.126;2023-04-25T00:33:04;7.50;;;5.77;;
9117;SDS011;4594;50.994;7.126;2023-04-25T00:35:30;5.63;;;5.13;;
9117;SDS011;4594;50.994;7.126;2023-04-25T00:37:56;10.83;;;5.80;;
9117;SDS011;4594;50.994;7.126;2023-04-25T00:40:22;8.73;;;4.57;;
9117;SDS011;4594;50.994;7.126;2023-04-25T00:42:47;7.73;;;4.90;;
9117;SDS011;4594;50.994;7.126;2023-04-25T00:45:17;5.57;;;4.77;;
9117;SDS011;4594;50.994;7.126;2023-04-25T00:47:43;7.37;;;5.37;;
9117;SDS011;4594;50.994;7.126;2023-04-25T00:50:10;9.30;;;5.23;;
9117;SDS011;4594;50.994;7.126;2023-04-25T00:52:41;7.83;;;5.13;;
9117;SDS011;4594;50.994;7.126;2023-04-25T00:55:10;7.63;;;5.57;;
9117;SDS011;4594;50.994;7.126;2023-04-25T00:57:37;6.53;;;4.83;;
9117;SDS011;4594;50.994;7.126;2023-04-25T01:00:07;10.77;;;5.90;;
9117;SDS011;4594;50.994;7.126;2023-04-25T01:02:38;7.90;;;5.70;;
9117;SDS011;4594;50.994;7.126;2023-04-25T01:05:07;8.50;;;5.50;;
9117;SDS011;4594;50.994;7.126;2023-04-25T01:07:33;5.67;;;5.00;;
9117;SDS011;4594;50.994;7.126;2023-04-25T01:09:59;9.53;;;5.30;;
9117;SDS011;4594;50.994;7.126;2023-04-25T01:12:26;6.43;;;5.77;;
9117;SDS011;4594;50.994;7.126;2023-04-25T01:14:52;8.40;;;5.20;;
9117;SDS011;4594;50.994;7.126;2023-04-25T01:17:18;6.70;;;5.17;;
9117;SDS011;4594;50.994;7.126;2023-04-25T01:19:44;5.93;;;5.33;;
9117;SDS011;4594;50.994;7.126;2023-04-25T01:22:14;7.00;;;5.53;;
9117;SDS011;4594;50.994;7.126;2023-04-25T01:24:40;5.87;;;5.10;;
9117;SDS011;4594;50.994;7.126;2023-04-25T01:27:06;6.83;;;5.10;;
9117;SDS011;4594;50.994;7.126;2023-04-25T01:29:33;6.27;;;5.10;;
9117;SDS011;4594;50.994;7.126;2023-04-25T01:32:01;11.50;;;5.27;;
9117;SDS011;4594;50.994;7.126;2023-04-25T01:34:26;9.60;;;5.53;;
9117;SDS011;4594;50.994;7.126;2023-04-25T01:36:52;8.00;;;5.43;;
9117;SDS011;4594;50.994;7.126;2023-04-25T01:39:19;6.27;;;5.40;;
9117;SDS011;4594;50.994;7.126;2023-04-25T01:41:45;7.87;;;5.07;;
9117;SDS011;4594;50.994;7.126;2023-04-25T01:44:12;7.07;;;5.33;;
9117;SDS011;4594;50.994;7.126;2023-04-25T01:46:39;10.23;;;6.50;;
9117;SDS011;4594;50.994;7.126;2023-04-25T01:49:05;8.73;;;5.33;;
9117;SDS011;4594;50.994;7.126;2023-04-25T01:51:31;6.53;;;5.70;;
9117;SDS011;4594;50.994;7.126;2023-04-25T01:53:57;6.23;;;5.63;;
9117;SDS011;4594;50.994;7.126;2023-04-25T01:56:24;8.37;;;5.67;;
9117;SDS011;4594;50.994;7.126;2023-04-25T01:58:50;8.33;;;6.10;;
9117;SDS011;4594;50.994;7.126;2023-04-25T02:01:16;7.10;;;5.30;;
9117;SDS011;4594;50.994;7.126;2023-04-25T02:03:42;6.67;;;5.67;;
9117;SDS011;4594;50.994;7.126;2023-04-25T02:06:08;7.50;;;5.00;;
9117;SDS011;4594;50.994;7.126;2023-04-25T02:08:34;8.77;;;5.80;;
9117;SDS011;4594;50.994;7.126;2023-04-25T02:11:02;11.67;;;6.47;;
9117;SDS011;4594;50.994;7.126;2023-04-25T02:13:28;8.67;;;5.47;;
9117;SDS011;4594;50.994;7.126;2023-04-25T02:15:53;11.07;;;6.13;;
9117;SDS011;4594;50.994;7.126;2023-04-25T02:18:19;8.13;;;5.73;;
9117;SDS011;4594;50.994;7.126;2023-04-25T02:20:46;11.63;;;5.77;;
9117;SDS011;4594;50.994;7.126;2023-04-25T02:23:12;10.87;;;6.80;;
9117;SDS011;4594;50.994;7.126;2023-04-25T02:25:38;7.57;;;6.10;;
9117;SDS011;4594;50.994;7.126;2023-04-25T02:28:04;10.23;;;5.97;;
9117;SDS011;4594;50.994;7.126;2023-04-25T02:30:29;8.90;;;5.60;;
9117;SDS011;4594;50.994;7.126;2023-04-25T02:32:55;10.13;;;5.57;;
9117;SDS011;4594;50.994;7.126;2023-04-25T02:35:21;12.33;;;6.30;;
9117;SDS011;4594;50.994;7.126;2023-04-25T02:37:47;7.07;;;6.03;;
9117;SDS011;4594;50.994;7.126;2023-04-25T02:40:12;8.80;;;5.20;;
9117;SDS011;4594;50.994;7.126;2023-04-25T02:42:38;7.83;;;5.50;;
9117;SDS011;4594;50.994;7.126;2023-04-25T02:45:04;7.13;;;5.17;;
9117;SDS011;4594;50.994;7.126;2023-04-25T02:47:30;14.00;;;5.63;;
9117;SDS011;4594;50.994;7.126;2023-04-25T02:49:56;7.20;;;4.87;;
9117;SDS011;4594;50.994;7.126;2023-04-25T02:52:21;6.20;;;4.93;;
9117;SDS011;4594;50.994;7.126;2023-04-25T02:54:47;6.97;;;5.13;;
9117;SDS011;4594;50.994;7.126;2023-04-25T02:57:13;6.40;;;4.87;;
9117;SDS011;4594;50.994;7.126;2023-04-25T02:59:38;6.67;;;4.93;;
9117;SDS011;4594;50.994;7.126;2023-04-25T03:02:04;13.23;;;5.03;;
9117;SDS011;4594;50.994;7.126;2023-04-25T03:04:30;6.37;;;5.10;;
9117;SDS011;4594;50.994;7.126;2023-04-25T03:06:56;7.47;;;5.23;;
9117;SDS011;4594;50.994;7.126;2023-04-25T03:09:22;5.27;;;4.37;;
9117;SDS011;4594;50.994;7.126;2023-04-25T03:11:47;7.50;;;4.43;;
9117;SDS011;4594;50.994;7.126;2023-04-25T03:14:13;6.30;;;4.63;;
9117;SDS011;4594;50.994;7.126;2023-04-25T03:16:39;7.50;;;4.53;;
9117;SDS011;4594;50.994;7.126;2023-04-25T03:19:05;6.57;;;4.60;;
9117;SDS011;4594;50.994;7.126;2023-04-25T03:21:31;7.00;;;4.57;;
9117;SDS011;4594;50.994;7.126;2023-04-25T03:23:59;7.90;;;4.97;;
9117;SDS011;4594;50.994;7.126;2023-04-25T03:26:28;6.03;;;4.90;;
9117;SDS011;4594;50.994;7.126;2023-04-25T03:28:54;7.67;;;4.93;;
9117;SDS011;4594;50.994;7.126;2023-04-25T03:31:20;7.47;;;4.43;;
9117;SDS011;4594;50.994;7.126;2023-04-25T03:33:46;4.73;;;4.33;;
9117;SDS011;4594;50.994;7.126;2023-04-25T03:36:11;5.77;;;4.57;;
9117;SDS011;4594;50.994;7.126;2023-04-25T03:38:37;6.17;;;4.50;;
9117;SDS011;4594;50.994;7.126;2023-04-25T03:41:03;5.77;;;4.20;;
9117;SDS011;4594;50.994;7.126;2023-04-25T03:43:28;11.93;;;5.47;;
9117;SDS011;4594;50.994;7.126;2023-04-25T03:45:54;5.77;;;4.60;;
9117;SDS011;4594;50.994;7.126;2023-04-25T03:48:20;10.20;;;4.70;;
9117;SDS011;4594;50.994;7.126;2023-04-25T03:50:50;9.17;;;4.80;;
9117;SDS011;4594;50.994;7.126;2023-04-25T03:53:17;5.00;;;4.50;;
9117;SDS011;4594;50.994;7.126;2023-04-25T03:55:42;5.00;;;4.60;;
9117;SDS011;4594;50.994;7.126;2023-04-25T03:58:08;5.80;;;4.80;;
9117;SDS011;4594;50.994;7.126;2023-04-25T04:00:34;6.13;;;4.47;;
9117;SDS011;4594;50.994;7.126;2023-04-25T04:03:00;8.77;;;4.47;;
9117;SDS011;4594;50.994;7.126;2023-04-25T04:05:26;6.93;;;4.50;;
9117;SDS011;4594;50.994;7.126;2023-04-25T04:07:53;10.90;;;5.67;;
9117;SDS011;4594;50.994;7.126;2023-04-25T04:10:20;5.30;;;4.60;;
9117;SDS011;4594;50.994;7.126;2023-04-25T04:12:46;5.13;;;4.20;;
9117;SDS011;4594;50.994;7.126;2023-04-25T04:15:12;5.07;;;4.57;;
9117;SDS011;4594;50.994;7.126;2023-04-25T04:17:38;5.17;;;4.67;;
9117;SDS011;4594;50.994;7.126;2023-04-25T04:20:04;6.57;;;4.43;;
9117;SDS011;4594;50.994;7.126;2023-04-25T04:22:31;7.63;;;4.40;;
9117;SDS011;4594;50.994;7.126;2023-04-25T04:24:57;5.10;;;4.60;;
9117;SDS011;4594;50.994;7.126;2023-04-25T04:27:23;10.40;;;5.10;;
9117;SDS011;4594;50.994;7.126;2023-04-25T04:29:48;8.93;;;4.63;;
9117;SDS011;4594;50.994;7.126;2023-04-25T04:32:17;5.70;;;4.60;;
9117;SDS011;4594;50.994;7.126;2023-04-25T04:34:43;8.27;;;5.20;;
9117;SDS011;4594;50.994;7.126;2023-04-25T04:37:09;5.10;;;4.60;;
9117;SDS011;4594;50.994;7.126;2023-04-25T04:39:35;6.43;;;4.20;;
9117;SDS011;4594;50.994;7.126;2023-04-25T04:42:02;5.63;;;4.77;;
9117;SDS011;4594;50.994;7.126;2023-04-25T04:44:28;4.63;;;4.23;;
9117;SDS011;4594;50.994;7.126;2023-04-25T04:46:57;9.67;;;4.60;;
9117;SDS011;4594;50.994;7.126;2023-04-25T04:49:23;6.73;;;4.60;;
9117;SDS011;4594;50.994;7.126;2023-04-25T04:51:49;9.00;;;5.07;;
9117;SDS011;4594;50.994;7.126;2023-04-25T04:54:15;9.07;;;4.67;;
9117;SDS011;4594;50.994;7.126;2023-04-25T04:56:41;6.43;;;5.03;;
9117;SDS011;4594;50.994;7.126;2023-04-25T04:59:07;9.30;;;5.03;;
9117;SDS011;4594;50.994;7.126;2023-04-25T05:01:32;8.93;;;5.00;;
9117;SDS011;4594;50.994;7.126;2023-04-25T05:04:00;5.83;;;4.60;;
9117;SDS011;4594;50.994;7.126;2023-04-25T05:06:27;9.83;;;5.37;;
9117;SDS011;4594;50.994;7.126;2023-04-25T05:08:54;7.70;;;5.33;;
9117;SDS011;4594;50.994;7.126;2023-04-25T05:11:21;7.43;;;5.10;;
9117;SDS011;4594;50.994;7.126;2023-04-25T05:13:49;5.53;;;5.00;;
9117;SDS011;4594;50.994;7.126;2023-04-25T05:16:16;6.93;;;5.30;;
9117;SDS011;4594;50.994;7.126;2023-04-25T05:18:42;11.47;;;5.70;;
9117;SDS011;4594;50.994;7.126;2023-04-25T05:21:08;8.07;;;5.80;;
9117;SDS011;4594;50.994;7.126;2023-04-25T05:23:33;8.10;;;5.53;;
9117;SDS011;4594;50.994;7.126;2023-04-25T05:25:59;6.03;;;4.97;;
9117;SDS011;4594;50.994;7.126;2023-04-25T05:28:25;7.13;;;4.97;;
9117;SDS011;4594;50.994;7.126;2023-04-25T05:30:51;13.30;;;6.23;;
9117;SDS011;4594;50.994;7.126;2023-04-25T05:33:17;6.60;;;4.83;;
9117;SDS011;4594;50.994;7.126;2023-04-25T05:35:43;7.60;;;5.37;;
9117;SDS011;4594;50.994;7.126;2023-04-25T05:38:09;9.43;;;5.10;;
9117;SDS011;4594;50.994;7.126;2023-04-25T05:40:35;6.93;;;5.47;;
9117;SDS011;4594;50.994;7.126;2023-04-25T05:43:01;12.27;;;5.27;;
9117;SDS011;4594;50.994;7.126;2023-04-25T05:45:27;11.17;;;5.50;;
9117;SDS011;4594;50.994;7.126;2023-04-25T05:47:53;13.40;;;5.43;;
9117;SDS011;4594;50.994;7.126;2023-04-25T05:50:18;8.17;;;5.13;;
9117;SDS011;4594;50.994;7.126;2023-04-25T05:52:44;6.77;;;5.50;;
9117;SDS011;4594;50.994;7.126;2023-04-25T05:55:10;7.93;;;5.10;;
9117;SDS011;4594;50.994;7.126;2023-04-25T05:57:35;11.47;;;5.23;;
9117;SDS011;4594;50.994;7.126;2023-04-25T06:00:01;13.63;;;4.70;;
9117;SDS011;4594;50.994;7.126;2023-04-25T06:02:28;8.03;;;4.80;;
9117;SDS011;4594;50.994;7.126;2023-04-25T06:04:54;9.53;;;4.83;;
9117;SDS011;4594;50.994;7.126;2023-04-25T06:07:20;11.30;;;4.93;;
9117;SDS011;4594;50.994;7.126;2023-04-25T06:09:45;10.97;;;4.80;;
9117;SDS011;4594;50.994;7.126;2023-04-25T06:12:11;7.77;;;4.60;;
9117;SDS011;4594;50.994;7.126;2023-04-25T06:14:38;14.63;;;5.53;;
9117;SDS011;4594;50.994;7.126;2023-04-25T06:17:03;12.23;;;4.97;;
9117;SDS011;4594;50.994;7.126;2023-04-25T06:19:33;12.83;;;4.67;;
9117;SDS011;4594;50.994;7.126;2023-04-25T06:22:00;8.83;;;5.17;;
9117;SDS011;4594;50.994;7.126;2023-04-25T06:24:27;11.30;;;4.43;;
9117;SDS011;4594;50.994;7.126;2023-04-25T06:26:53;14.47;;;4.73;;
9117;SDS011;4594;50.994;7.126;2023-04-25T06:29:19;10.73;;;4.90;;
9117;SDS011;4594;50.994;7.126;2023-04-25T06:31:45;8.87;;;4.97;;
9117;SDS011;4594;50.994;7.126;2023-04-25T06:34:11;13.80;;;4.93;;
9117;SDS011;4594;50.994;7.126;2023-04-25T06:36:37;10.20;;;4.40;;
9117;SDS011;4594;50.994;7.126;2023-04-25T06:39:02;10.23;;;4.07;;
9117;SDS011;4594;50.994;7.126;2023-04-25T06:41:28;11.13;;;4.97;;
9117;SDS011;4594;50.994;7.126;2023-04-25T06:43:54;11.47;;;4.53;;
9117;SDS011;4594;50.994;7.126;2023-04-25T06:46:20;11.23;;;4.57;;
9117;SDS011;4594;50.994;7.126;2023-04-25T06:48:45;11.83;;;4.20;;
9117;SDS011;4594;50.994;7.126;2023-04-25T06:51:11;8.07;;;4.03;;
9117;SDS011;4594;50.994;7.126;2023-04-25T06:53:38;9.83;;;4.00;;
9117;SDS011;4594;50.994;7.126;2023-04-25T06:56:04;9.40;;;3.77;;
9117;SDS011;4594;50.994;7.126;2023-04-25T06:58:30;11.13;;;3.90;;
9117;SDS011;4594;50.994;7.126;2023-04-25T07:00:56;7.30;;;3.77;;
9117;SDS011;4594;50.994;7.126;2023-04-25T07:03:22;8.30;;;3.87;;
9117;SDS011;4594;50.994;7.126;2023-04-25T07:05:48;13.43;;;3.57;;
9117;SDS011;4594;50.994;7.126;2023-04-25T07:08:15;12.40;;;3.90;;
9117;SDS011;4594;50.994;7.126;2023-04-25T07:10:41;4.37;;;3.47;;
9117;SDS011;4594;50.994;7.126;2023-04-25T07:13:07;8.27;;;3.60;;
9117;SDS011;4594;50.994;7.126;2023-04-25T07:15:33;9.53;;;3.93;;
9117;SDS011;4594;50.994;7.126;2023-04-25T07:17:59;5.23;;;3.57;;
9117;SDS011;4594;50.994;7.126;2023-04-25T07:20:25;7.67;;;3.60;;
9117;SDS011;4594;50.994;7.126;2023-04-25T07:22:52;9.57;;;3.23;;
9117;SDS011;4594;50.994;7.126;2023-04-25T07:25:18;9.70;;;3.80;;
9117;SDS011;4594;50.994;7.126;2023-04-25T07:27:44;11.13;;;4.17;;
9117;SDS011;4594;50.994;7.126;2023-04-25T07:30:10;7.63;;;4.00;;
9117;SDS011;4594;50.994;7.126;2023-04-25T07:32:37;11.80;;;4.60;;
9117;SDS011;4594;50.994;7.126;2023-04-25T07:35:04;16.77;;;4.23;;
9117;SDS011;4594;50.994;7.126;2023-04-25T07:37:31;9.53;;;3.83;;
9117;SDS011;4594;50.994;7.126;2023-04-25T07:39:58;11.83;;;4.33;;
9117;SDS011;4594;50.994;7.126;2023-04-25T07:42:24;9.57;;;3.90;;
9117;SDS011;4594;50.994;7.126;2023-04-25T07:44:50;12.03;;;4.53;;
9117;SDS011;4594;50.994;7.126;2023-04-25T07:47:16;12.67;;;4.47;;
9117;SDS011;4594;50.994;7.126;2023-04-25T07:49:44;6.53;;;3.80;;
9117;SDS011;4594;50.994;7.126;2023-04-25T07:52:10;11.33;;;3.87;;
9117;SDS011;4594;50.994;7.126;2023-04-25T07:54:36;6.47;;;3.80;;
9117;SDS011;4594;50.994;7.126;2023-04-25T07:57:01;9.47;;;4.33;;
9117;SDS011;4594;50.994;7.126;2023-04-25T07:59:27;10.03;;;4.33;;
9117;SDS011;4594;50.994;7.126;2023-04-25T08:01:53;5.83;;;4.00;;
9117;SDS011;4594;50.994;7.126;2023-04-25T08:04:19;6.47;;;3.27;;
9117;SDS011;4594;50.994;7.126;2023-04-25T08:06:45;8.73;;;4.00;;
9117;SDS011;4594;50.994;7.126;2023-04-25T08:09:11;8.10;;;4.20;;
9117;SDS011;4594;50.994;7.126;2023-04-25T08:11:37;8.07;;;4.03;;
9117;SDS011;4594;50.994;7.126;2023-04-25T08:14:03;9.83;;;3.90;;
9117;SDS011;4594;50.994;7.126;2023-04-25T08:16:28;9.37;;;3.60;;
9117;SDS011;4594;50.994;7.126;2023-04-25T08:18:55;3.43;;;3.00;;
9117;SDS011;4594;50.994;7.126;2023-04-25T08:21:20;5.77;;;3.23;;
9117;SDS011;4594;50.994;7.126;2023-04-25T08:23:46;9.10;;;3.30;;
9117;SDS011;4594;50.994;7.126;2023-04-25T08:26:12;8.37;;;3.67;;
9117;SDS011;4594;50.994;7.126;2023-04-25T08:28:37;11.30;;;3.10;;
9117;SDS011;4594;50.994;7.126;2023-04-25T08:31:03;6.60;;;3.53;;
9117;SDS011;4594;50.994;7.126;2023-04-25T08:33:29;7.03;;;2.93;;
9117;SDS011;4594;50.994;7.126;2023-04-25T08:35:55;5.37;;;2.97;;
9117;SDS011;4594;50.994;7.126;2023-04-25T08:38:20;4.70;;;2.60;;
9117;SDS011;4594;50.994;7.126;2023-04-25T08:40:48;14.50;;;3.03;;
9117;SDS011;4594;50.994;7.126;2023-04-25T08:43:18;5.83;;;2.80;;
9117;SDS011;4594;50.994;7.126;2023-04-25T08:45:45;5.47;;;3.00;;
9117;SDS011;4594;50.994;7.126;2023-04-25T08:48:12;12.87;;;3.70;;
9117;SDS011;4594;50.994;7.126;2023-04-25T08:50:43;7.77;;;2.93;;
9117;SDS011;4594;50.994;7.126;2023-04-25T08:53:16;4.37;;;2.70;;
9117;SDS011;4594;50.994;7.126;2023-04-25T08:55:45;9.83;;;3.33;;
9117;SDS011;4594;50.994;7.126;2023-04-25T08:58:12;3.93;;;2.90;;
9117;SDS011;4594;50.994;7.126;2023-04-25T09:00:38;9.20;;;3.37;;
9117;SDS011;4594;50.994;7.126;2023-04-25T09:03:04;6.83;;;3.97;;
9117;SDS011;4594;50.994;7.126;2023-04-25T09:05:31;9.37;;;3.70;;
9117;SDS011;4594;50.994;7.126;2023-04-25T09:07:58;5.53;;;3.63;;
9117;SDS011;4594;50.994;7.126;2023-04-25T09:10:25;7.30;;;3.63;;
9117;SDS011;4594;50.994;7.126;2023-04-25T09:15:33;4.73;;;3.63;;
9117;SDS011;4594;50.994;7.126;2023-04-25T09:18:11;12.77;;;4.30;;
9117;SDS011;4594;50.994;7.126;2023-04-25T09:20:41;4.87;;;3.30;;
9117;SDS011;4594;50.994;7.126;2023-04-25T09:23:08;7.17;;;3.73;;
9117;SDS011;4594;50.994;7.126;2023-04-25T09:25:34;5.40;;;3.43;;
9117;SDS011;4594;50.994;7.126;2023-04-25T09:28:04;6.30;;;4.17;;
9117;SDS011;4594;50.994;7.126;2023-04-25T09:30:32;5.13;;;3.83;;
9117;SDS011;4594;50.994;7.126;2023-04-25T09:33:03;15.03;;;3.90;;
9117;SDS011;4594;50.994;7.126;2023-04-25T09:35:38;8.23;;;3.70;;
9117;SDS011;4594;50.994;7.126;2023-04-25T09:38:11;6.20;;;3.33;;
9117;SDS011;4594;50.994;7.126;2023-04-25T09:40:39;5.17;;;3.27;;
9117;SDS011;4594;50.994;7.126;2023-04-25T09:43:19;3.57;;;2.87;;
9117;SDS011;4594;50.994;7.126;2023-04-25T09:45:47;7.53;;;3.17;;
9117;SDS011;4594;50.994;7.126;2023-04-25T09:48:16;7.87;;;3.00;;
9117;SDS011;4594;50.994;7.126;2023-04-25T09:50:44;9.70;;;3.10;;
9117;SDS011;4594;50.994;7.126;2023-04-25T09:53:28;6.27;;;2.90;;
9117;SDS011;4594;50.994;7.126;2023-04-25T09:55:55;8.60;;;3.37;;
9117;SDS011;4594;50.994;7.126;2023-04-25T09:58:21;5.03;;;3.10;;
9117;SDS011;4594;50.994;7.126;2023-04-25T10:00:50;7.13;;;2.87;;
9117;SDS011;4594;50.994;7.126;2023-04-25T10:03:17;7.70;;;3.03;;
9117;SDS011;4594;50.994;7.126;2023-04-25T10:05:45;7.43;;;2.77;;
9117;SDS011;4594;50.994;7.126;2023-04-25T10:08:14;6.00;;;2.80;;
9117;SDS011;4594;50.994;7.126;2023-04-25T10:10:41;7.50;;;3.10;;
9117;SDS011;4594;50.994;7.126;2023-04-25T10:13:08;6.47;;;3.10;;
9117;SDS011;4594;50.994;7.126;2023-04-25T10:15:35;5.70;;;2.57;;
9117;SDS011;4594;50.994;7.126;2023-04-25T10:18:03;2.90;;;2.53;;
9117;SDS011;4594;50.994;7.126;2023-04-25T10:20:31;20.03;;;7.30;;
9117;SDS011;4594;50.994;7.126;2023-04-25T10:23:00;5.40;;;4.13;;
9117;SDS011;4594;50.994;7.126;2023-04-25T10:25:37;5.23;;;3.00;;
9117;SDS011;4594;50.994;7.126;2023-04-25T10:28:05;8.23;;;3.20;;
9117;SDS011;4594;50.994;7.126;2023-04-25T10:30:30;5.27;;;3.00;;
9117;SDS011;4594;50.994;7.126;2023-04-25T10:32:56;3.83;;;2.83;;
9117;SDS011;4594;50.994;7.126;2023-04-25T10:35:26;2.60;;;2.03;;
9117;SDS011;4594;50.994;7.126;2023-04-25T10:38:05;5.33;;;2.33;;
9117;SDS011;4594;50.994;7.126;2023-04-25T10:40:35;5.20;;;2.37;;
9117;SDS011;4594;50.994;7.126;2023-04-25T10:43:33;3.90;;;2.00;;
9117;SDS011;4594;50.994;7.126;2023-04-25T10:45:56;2.77;;;2.00;;
9117;SDS011;4594;50.994;7.126;2023-04-25T10:48:28;2.77;;;2.00;;
9117;SDS011;4594;50.994;7.126;2023-04-25T10:53:34;9.03;;;3.20;;
9117;SDS011;4594;50.994;7.126;2023-04-25T10:56:00;11.40;;;4.20;;
9117;SDS011;4594;50.994;7.126;2023-04-25T10:59:03;5.87;;;3.00;;
9117;SDS011;4594;50.994;7.126;2023-04-25T11:01:47;3.67;;;2.63;;
9117;SDS011;4594;50.994;7.126;2023-04-25T11:09:53;7.07;;;3.00;;
9117;SDS011;4594;50.994;7.126;2023-04-25T11:12:19;9.13;;;2.67;;
9117;SDS011;4594;50.994;7.126;2023-04-25T11:14:45;5.50;;;2.37;;
9117;SDS011;4594;50.994;7.126;2023-04-25T11:17:10;3.90;;;2.30;;
9117;SDS011;4594;50.994;7.126;2023-04-25T11:19:36;3.80;;;2.50;;
9117;SDS011;4594;50.994;7.126;2023-04-25T11:22:02;3.23;;;2.43;;
9117;SDS011;4594;50.994;7.126;2023-04-25T11:24:29;4.40;;;2.33;;
9117;SDS011;4594;50.994;7.126;2023-04-25T11:26:57;3.47;;;2.37;;
9117;SDS011;4594;50.994;7.126;2023-04-25T11:29:27;5.03;;;2.57;;
9117;SDS011;4594;50.994;7.126;2023-04-25T11:31:54;3.00;;;2.27;;
9117;SDS011;4594;50.994;7.126;2023-04-25T11:34:22;3.87;;;2.07;;
9117;SDS011;4594;50.994;7.126;2023-04-25T11:36:51;5.97;;;2.50;;
9117;SDS011;4594;50.994;7.126;2023-04-25T11:39:20;2.60;;;2.40;;
9117;SDS011;4594;50.994;7.126;2023-04-25T11:41:47;2.77;;;2.00;;
9117;SDS011;4594;50.994;7.126;2023-04-25T11:44:15;6.00;;;2.03;;
9117;SDS011;4594;50.994;7.126;2023-04-25T11:46:42;5.17;;;2.30;;
9117;SDS011;4594;50.994;7.126;2023-04-25T11:49:08;2.80;;;1.90;;
9117;SDS011;4594;50.994;7.126;2023-04-25T11:51:41;3.67;;;2.10;;
9117;SDS011;4594;50.994;7.126;2023-04-25T11:54:09;3.40;;;2.40;;
9117;SDS011;4594;50.994;7.126;2023-04-25T11:56:36;3.73;;;2.17;;
9117;SDS011;4594;50.994;7.126;2023-04-25T11:59:03;6.13;;;4.17;;
9117;SDS011;4594;50.994;7.126;2023-04-25T12:01:34;3.10;;;2.90;;
9117;SDS011;4594;50.994;7.126;2023-04-25T12:04:12;3.83;;;2.30;;
9117;SDS011;4594;50.994;7.126;2023-04-25T12:06:50;3.97;;;2.00;;
9117;SDS011;4594;50.994;7.126;2023-04-25T12:09:19;3.47;;;2.13;;
9117;SDS011;4594;50.994;7.126;2023-04-25T12:11:59;3.97;;;2.10;;
9117;SDS011;4594;50.994;7.126;2023-04-25T12:14:29;2.13;;;1.93;;
9117;SDS011;4594;50.994;7.126;2023-04-25T12:16:58;3.30;;;2.23;;
9117;SDS011;4594;50.994;7.126;2023-04-25T12:19:34;2.83;;;1.90;;
9117;SDS011;4594;50.994;7.126;2023-04-25T12:22:10;2.43;;;2.00;;
9117;SDS011;4594;50.994;7.126;2023-04-25T12:24:49;2.20;;;1.90;;
9117;SDS011;4594;50.994;7.126;2023-04-25T12:27:15;2.73;;;2.30;;
9117;SDS011;4594;50.994;7.126;2023-04-25T12:29:50;2.00;;;1.90;;
9117;SDS011;4594;50.994;7.126;2023-04-25T12:32:21;2.00;;;1.90;;
9117;SDS011;4594;50.994;7.126;2023-04-25T12:34:47;2.33;;;2.10;;
9117;SDS011;4594;50.994;7.126;2023-04-25T12:37:13;2.93;;;2.30;;
9117;SDS011;4594;50.994;7.126;2023-04-25T12:39:39;2.63;;;2.10;;
9117;SDS011;4594;50.994;7.126;2023-04-25T12:42:05;3.73;;;2.07;;
9117;SDS011;4594;50.994;7.126;2023-04-25T12:44:32;2.00;;;1.90;;
9117;SDS011;4594;50.994;7.126;2023-04-25T12:46:59;2.33;;;1.97;;
9117;SDS011;4594;50.994;7.126;2023-04-25T12:49:25;1.97;;;1.87;;
9117;SDS011;4594;50.994;7.126;2023-04-25T12:51:50;2.47;;;2.10;;
9117;SDS011;4594;50.994;7.126;2023-04-25T12:54:16;4.53;;;2.17;;
9117;SDS011;4594;50.994;7.126;2023-04-25T12:56:42;3.53;;;2.20;;
9117;SDS011;4594;50.994;7.126;2023-04-25T12:59:08;3.37;;;2.37;;
9117;SDS011;4594;50.994;7.126;2023-04-25T13:01:34;3.60;;;2.40;;
9117;SDS011;4594;50.994;7.126;2023-04-25T13:04:01;2.73;;;2.40;;
9117;SDS011;4594;50.994;7.126;2023-04-25T13:06:26;17.57;;;3.00;;
9117;SDS011;4594;50.994;7.126;2023-04-25T13:08:52;2.40;;;2.13;;
9117;SDS011;4594;50.994;7.126;2023-04-25T13:11:19;3.93;;;2.20;;
9117;SDS011;4594;50.994;7.126;2023-04-25T13:13:45;2.57;;;1.87;;
9117;SDS011;4594;50.994;7.126;2023-04-25T13:16:10;2.00;;;1.77;;
9117;SDS011;4594;50.994;7.126;2023-04-25T13:18:38;3.40;;;2.10;;
9117;SDS011;4594;50.994;7.126;2023-04-25T13:21:04;5.07;;;1.97;;
9117;SDS011;4594;50.994;7.126;2023-04-25T13:23:30;5.63;;;2.20;;
9117;SDS011;4594;50.994;7.126;2023-04-25T13:25:56;3.70;;;2.20;;
9117;SDS011;4594;50.994;7.126;2023-04-25T13:28:23;2.00;;;1.90;;
9117;SDS011;4594;50.994;7.126;2023-04-25T13:30:49;6.90;;;2.27;;
9117;SDS011;4594;50.994;7.126;2023-04-25T13:33:16;7.07;;;2.30;;
9117;SDS011;4594;50.994;7.126;2023-04-25T13:35:42;3.30;;;2.10;;
9117;SDS011;4594;50.994;7.126;2023-04-25T13:38:11;3.93;;;2.40;;
9117;SDS011;4594;50.994;7.126;2023-04-25T13:40:38;2.87;;;2.37;;
9117;SDS011;4594;50.994;7.126;2023-04-25T13:43:04;3.87;;;2.37;;
9117;SDS011;4594;50.994;7.126;2023-04-25T13:45:31;5.77;;;2.50;;
9117;SDS011;4594;50.994;7.126;2023-04-25T13:47:57;2.67;;;2.47;;
9117;SDS011;4594;50.994;7.126;2023-04-25T13:50:23;7.33;;;2.80;;
9117;SDS011;4594;50.994;7.126;2023-04-25T13:52:48;3.03;;;2.20;;
9117;SDS011;4594;50.994;7.126;2023-04-25T13:55:14;2.83;;;2.50;;
9117;SDS011;4594;50.994;7.126;2023-04-25T13:57:40;3.23;;;2.50;;
9117;SDS011;4594;50.994;7.126;2023-04-25T14:00:05;3.10;;;2.87;;
9117;SDS011;4594;50.994;7.126;2023-04-25T14:02:33;3.00;;;2.80;;
9117;SDS011;4594;50.994;7.126;2023-04-25T14:05:01;4.07;;;3.00;;
9117;SDS011;4594;50.994;7.126;2023-04-25T14:07:28;6.30;;;2.77;;
9117;SDS011;4594;50.994;7.126;2023-04-25T14:09:55;5.87;;;2.80;;
9117;SDS011;4594;50.994;7.126;2023-04-25T14:12:22;2.80;;;2.47;;
9117;SDS011;4594;50.994;7.126;2023-04-25T14:14:48;4.80;;;2.77;;
9117;SDS011;4594;50.994;7.126;2023-04-25T14:17:14;3.43;;;3.00;;
9117;SDS011;4594;50.994;7.126;2023-04-25T14:19:40;2.83;;;2.67;;
9117;SDS011;4594;50.994;7.126;2023-04-25T14:22:10;3.77;;;2.80;;
9117;SDS011;4594;50.994;7.126;2023-04-25T14:24:36;3.03;;;2.70;;
9117;SDS011;4594;50.994;7.126;2023-04-25T14:27:03;3.83;;;2.80;;
9117;SDS011;4594;50.994;7.126;2023-04-25T14:29:29;2.40;;;2.30;;
9117;SDS011;4594;50.994;7.126;2023-04-25T14:31:55;3.03;;;2.43;;
9117;SDS011;4594;50.994;7.126;2023-04-25T14:34:22;6.63;;;2.83;;
9117;SDS011;4594;50.994;7.126;2023-04-25T14:36:48;4.70;;;2.47;;
9117;SDS011;4594;50.994;7.126;2023-04-25T14:39:15;8.10;;;2.73;;
9117;SDS011;4594;50.994;7.126;2023-04-25T14:41:41;5.83;;;2.60;;
9117;SDS011;4594;50.994;7.126;2023-04-25T14:44:07;2.07;;;1.93;;
9117;SDS011;4594;50.994;7.126;2023-04-25T14:46:33;2.53;;;2.33;;
9117;SDS011;4594;50.994;7.126;2023-04-25T14:48:58;2.57;;;2.13;;
9117;SDS011;4594;50.994;7.126;2023-04-25T14:51:25;4.03;;;2.40;;
9117;SDS011;4594;50.994;7.126;2023-04-25T14:53:51;2.03;;;1.90;;
9117;SDS011;4594;50.994;7.126;2023-04-25T14:56:17;2.60;;;2.20;;
9117;SDS011;4594;50.994;7.126;2023-04-25T14:58:43;3.07;;;2.23;;
9117;SDS011;4594;50.994;7.126;2023-04-25T15:01:10;1.90;;;1.80;;
9117;SDS011;4594;50.994;7.126;2023-04-25T15:03:37;3.20;;;2.23;;
9117;SDS011;4594;50.994;7.126;2023-04-25T15:06:07;3.97;;;1.87;;
9117;SDS011;4594;50.994;7.126;2023-04-25T15:08:33;2.03;;;1.97;;
9117;SDS011;4594;50.994;7.126;2023-04-25T15:10:59;2.33;;;2.13;;
9117;SDS011;4594;50.994;7.126;2023-04-25T15:13:27;5.43;;;2.47;;
9117;SDS011;4594;50.994;7.126;2023-04-25T15:15:52;2.60;;;2.20;;
9117;SDS011;4594;50.994;7.126;2023-04-25T15:18:21;3.87;;;2.20;;
9117;SDS011;4594;50.994;7.126;2023-04-25T15:20:48;2.27;;;2.07;;
9117;SDS011;4594;50.994;7.126;2023-04-25T15:23:16;6.70;;;2.60;;